createdAt,value
2022-08-30T00:03:57.908Z,14.30
2022-08-30T00:09:59.921Z,14.20
2022-08-30T00:16:02.259Z,14.10
2022-08-30T00:22:06.848Z,14.20
2022-08-30T00:28:09.817Z,14.30
2022-08-30T00:34:11.778Z,14.30
2022-08-30T00:40:16.000Z,14.30
2022-08-30T00:46:18.235Z,14.10
2022-08-30T00:52:22.267Z,14.00
2022-08-30T00:58:37.208Z,13.80
2022-08-30T01:04:42.774Z,13.70
2022-08-30T01:10:44.972Z,13.70
2022-08-30T01:16:47.472Z,13.80
2022-08-30T01:22:49.555Z,13.80
2022-08-30T01:28:56.931Z,13.70
2022-08-30T01:34:58.899Z,13.60
2022-08-30T01:41:13.336Z,13.50
2022-08-30T01:47:18.195Z,13.50
2022-08-30T01:53:20.313Z,13.50
2022-08-30T01:59:22.308Z,13.50
2022-08-30T02:05:24.838Z,13.50
2022-08-30T02:11:26.895Z,13.50
2022-08-30T02:17:28.866Z,13.40
2022-08-30T02:23:31.259Z,13.30
2022-08-30T02:29:33.213Z,13.20
2022-08-30T02:35:35.271Z,13.20
2022-08-30T02:41:39.003Z,13.10
2022-08-30T02:47:46.687Z,12.90
2022-08-30T02:53:49.854Z,12.80
2022-08-30T02:59:52.349Z,13.00
2022-08-30T03:05:54.455Z,13.10
2022-08-30T03:11:56.408Z,13.10
2022-08-30T03:17:58.601Z,13.10
2022-08-30T03:24:00.560Z,13.00
2022-08-30T03:30:02.714Z,12.80
2022-08-30T03:36:05.534Z,12.60
2022-08-30T03:42:07.703Z,12.70
2022-08-30T03:48:11.050Z,12.70
2022-08-30T03:54:13.524Z,12.70
2022-08-30T04:00:19.045Z,12.70
2022-08-30T04:06:21.010Z,12.60
2022-08-30T04:12:23.041Z,12.60
2022-08-30T04:18:25.258Z,12.60
2022-08-30T04:24:27.637Z,12.70
2022-08-30T04:30:29.762Z,12.80
2022-08-30T04:36:31.754Z,12.90
2022-08-30T04:42:35.294Z,12.90
2022-08-30T04:48:38.481Z,12.90
2022-08-30T04:54:40.520Z,12.90
2022-08-30T05:00:44.584Z,13.00
2022-08-30T05:06:46.702Z,13.10
2022-08-30T05:12:48.721Z,13.10
2022-08-30T05:18:52.393Z,13.20
2022-08-30T05:24:54.434Z,13.40
2022-08-30T05:30:56.376Z,13.40
2022-08-30T05:36:59.454Z,13.50
2022-08-30T05:43:01.470Z,13.60
2022-08-30T05:49:06.162Z,13.80
2022-08-30T05:55:09.714Z,14.10
2022-08-30T06:01:28.011Z,14.30
2022-08-30T06:07:30.119Z,14.50
2022-08-30T06:13:32.707Z,14.60
2022-08-30T06:19:34.681Z,14.70
2022-08-30T06:25:41.915Z,14.80
2022-08-30T06:31:44.425Z,15.00
2022-08-30T06:37:46.406Z,15.10
2022-08-30T06:43:49.443Z,15.50
2022-08-30T06:49:51.436Z,15.70
2022-08-30T06:55:59.538Z,16.00
2022-08-30T07:02:01.597Z,16.30
2022-08-30T07:08:03.885Z,16.60
2022-08-30T07:14:07.463Z,16.70
2022-08-30T07:20:10.419Z,16.90
2022-08-30T07:26:15.919Z,16.80
2022-08-30T07:32:17.893Z,16.80
2022-08-30T07:38:19.929Z,16.90
2022-08-30T07:44:25.011Z,16.90
2022-08-30T07:50:27.582Z,16.90
2022-08-30T07:56:29.619Z,17.20
2022-08-30T08:02:31.652Z,17.30
2022-08-30T08:08:34.938Z,17.50
2022-08-30T08:14:37.241Z,17.60
2022-08-30T08:20:39.201Z,17.60
2022-08-30T08:26:45.378Z,17.90
2022-08-30T08:32:48.999Z,18.00
2022-08-30T08:38:50.987Z,18.40
2022-08-30T08:45:19.329Z,19.00
2022-08-30T08:51:46.122Z,19.50
2022-08-30T08:57:48.280Z,19.80
2022-08-30T09:03:50.981Z,21.00
2022-08-30T09:09:53.089Z,21.90
2022-08-30T09:15:59.549Z,22.70
2022-08-30T09:22:12.844Z,23.10
2022-08-30T09:28:18.501Z,23.90
2022-08-30T09:34:23.907Z,23.60
2022-08-30T09:40:44.370Z,23.60
2022-08-30T09:46:56.079Z,23.30
2022-08-30T09:53:23.335Z,23.90
2022-08-30T09:59:46.775Z,24.50
2022-08-30T10:06:11.703Z,25.80
2022-08-30T10:12:32.989Z,26.20
2022-08-30T10:19:06.391Z,25.60
2022-08-30T10:25:25.505Z,26.00
2022-08-30T10:31:53.953Z,26.80
2022-08-30T10:38:06.209Z,27.80
2022-08-30T10:44:30.919Z,28.30
2022-08-30T10:50:42.834Z,28.20
2022-08-30T10:56:51.426Z,27.40
2022-08-30T11:03:26.535Z,27.60
2022-08-30T11:09:46.300Z,27.90
2022-08-30T11:16:09.250Z,28.90
2022-08-30T11:22:24.325Z,28.80
2022-08-30T11:28:38.509Z,28.30
2022-08-30T11:34:46.812Z,29.30
2022-08-30T11:41:11.263Z,30.00
2022-08-30T11:47:42.144Z,30.00
2022-08-30T11:54:06.506Z,27.90
2022-08-30T12:00:35.562Z,29.30
2022-08-30T12:06:40.472Z,29.60
2022-08-30T12:12:48.903Z,31.00
2022-08-30T12:19:00.073Z,32.20
2022-08-30T12:25:13.496Z,32.30
2022-08-30T12:31:26.956Z,32.00
2022-08-30T12:37:31.999Z,31.20
2022-08-30T12:43:52.836Z,30.70
2022-08-30T12:49:56.270Z,30.60
2022-08-30T12:56:05.524Z,31.70
2022-08-30T13:02:22.863Z,32.40
2022-08-30T13:08:50.629Z,31.80
2022-08-30T13:15:08.946Z,32.90
2022-08-30T13:21:25.888Z,31.90
2022-08-30T13:27:29.710Z,32.80
2022-08-30T13:33:31.858Z,34.50
2022-08-30T13:39:34.562Z,34.90
2022-08-30T13:45:42.132Z,34.20
2022-08-30T13:51:53.779Z,35.40
2022-08-30T13:58:06.619Z,35.60
2022-08-30T14:04:16.315Z,36.30
2022-08-30T14:10:45.690Z,33.50
2022-08-30T14:16:46.320Z,30.20
2022-08-30T14:22:48.420Z,28.30
2022-08-30T14:28:51.731Z,28.30
2022-08-30T14:34:54.104Z,30.70
2022-08-30T14:40:56.114Z,29.20
2022-08-30T14:46:58.393Z,27.90
2022-08-30T14:53:03.077Z,27.90
2022-08-30T14:59:05.752Z,28.90
2022-08-30T15:05:08.487Z,32.30
2022-08-30T15:11:13.553Z,32.50
2022-08-30T15:17:17.893Z,33.80
2022-08-30T15:23:22.876Z,33.70
2022-08-30T15:29:27.636Z,32.60
2022-08-30T15:35:33.559Z,32.80
2022-08-30T15:41:36.091Z,32.40
2022-08-30T15:47:39.674Z,32.90
2022-08-30T15:53:43.925Z,34.00
2022-08-30T15:59:46.400Z,34.90
2022-08-30T16:05:48.381Z,34.50
2022-08-30T16:11:52.024Z,34.90
2022-08-30T16:17:54.093Z,34.40
2022-08-30T16:23:59.948Z,34.10
2022-08-30T16:30:01.965Z,33.70
2022-08-30T16:36:05.040Z,34.50
2022-08-30T16:42:07.923Z,33.40
2022-08-30T16:48:17.008Z,33.40
2022-08-30T16:54:19.127Z,33.70
2022-08-30T17:00:21.961Z,33.10
2022-08-30T17:06:24.266Z,33.40
2022-08-30T17:12:26.668Z,32.60
2022-08-30T17:18:28.616Z,32.00
2022-08-30T17:24:30.787Z,31.90
2022-08-30T17:30:33.512Z,30.50
2022-08-30T17:36:36.938Z,30.00
2022-08-30T17:42:39.252Z,29.50
2022-08-30T17:48:41.276Z,28.50
2022-08-30T17:54:43.341Z,27.20
2022-08-30T18:00:45.614Z,26.10
2022-08-30T18:06:48.136Z,24.70
2022-08-30T18:12:51.166Z,23.60
2022-08-30T18:18:57.324Z,22.70
2022-08-30T18:25:02.419Z,22.10
2022-08-30T18:31:05.000Z,21.50
2022-08-30T18:37:12.789Z,21.00
2022-08-30T18:43:16.696Z,20.50
2022-08-30T18:49:18.666Z,20.30
2022-08-30T18:55:20.890Z,20.10
2022-08-30T19:01:23.182Z,19.90
2022-08-30T19:07:29.003Z,19.80
2022-08-30T19:13:47.917Z,19.80
2022-08-30T19:19:52.158Z,19.60
2022-08-30T19:25:55.107Z,19.40
2022-08-30T19:31:57.210Z,19.30
2022-08-30T19:37:59.437Z,19.30
2022-08-30T19:44:03.143Z,19.40
2022-08-30T19:50:07.519Z,19.50
2022-08-30T19:56:11.298Z,19.40
2022-08-30T20:02:13.711Z,19.30
2022-08-30T20:08:15.824Z,19.30
2022-08-30T20:14:17.887Z,19.20
2022-08-30T20:20:21.972Z,19.00
2022-08-30T20:26:33.638Z,19.00
2022-08-30T20:32:37.796Z,18.90
2022-08-30T20:38:40.246Z,18.80
2022-08-30T20:44:43.031Z,18.70
2022-08-30T20:50:45.538Z,18.60
2022-08-30T20:56:47.550Z,18.60
2022-08-30T21:02:50.337Z,18.50
2022-08-30T21:08:52.947Z,18.50
2022-08-30T21:14:55.167Z,18.50
2022-08-30T21:20:58.490Z,18.40
2022-08-30T21:27:00.734Z,18.40
2022-08-30T21:33:04.902Z,18.30
2022-08-30T21:39:08.505Z,18.20
2022-08-30T21:45:11.119Z,18.10
2022-08-30T21:51:13.303Z,18.10
2022-08-30T21:57:16.929Z,18.00
2022-08-30T22:03:19.023Z,18.00
2022-08-30T22:09:24.693Z,17.90
2022-08-30T22:15:26.841Z,17.80
2022-08-30T22:21:32.261Z,17.70
2022-08-30T22:27:34.683Z,17.60
2022-08-30T22:33:37.652Z,17.50
2022-08-30T22:39:39.728Z,17.50
2022-08-30T22:45:42.221Z,17.60
2022-08-30T22:51:44.304Z,17.50
2022-08-30T22:57:46.256Z,17.40
2022-08-30T23:03:49.245Z,17.20
2022-08-30T23:09:51.240Z,17.10
2022-08-30T23:15:53.250Z,17.00
2022-08-30T23:21:55.185Z,16.90
2022-08-30T23:28:17.467Z,16.90
2022-08-30T23:34:41.185Z,16.90
2022-08-30T23:41:01.905Z,16.90
2022-08-30T23:47:22.429Z,16.90
2022-08-30T23:53:43.695Z,16.80
